Unbenanntes Dokument
Flugplatz Bielefeld Platzwetter

 

Aktuelles Platzwetter am Flugplatz Bielefeld EDLI

25.04.19 ,23:59 Uhr

METAR EDLI 252359Z 27002KT 9999 ///180 11/10 Q1009

 

Windwerte

 

Wolkenuntergrenzen

Wind aktuell:330 ° mit 1 kt
Wind 10 min Extrem:
250 ° bis 320 ° mit 1 kt bis 4 kt
Seitenwindkomponente: 0.2 kt
Wolkengrenze 1: 18000 ft
Wolkengrenze 2:
Wolkengrenze 3:

Webcam

Temperatur

       

Sichtweite:

20.000 Meter

11.1 °C
Taupunkt: 10.4 °C
Luftfeuchtigkeit: 95 %

Luftdruck:

QNH: 1009 hPa (29.80 in Hg)
QFE: 993 hPa (29.32 in Hg)

Diese Daten werden automatisch ermittelt bzw. übertragen und sind nicht geprüft. Für die Richtigkeit wird daher keine Gewähr übernommen. Sie ersetzen im übrigen nicht die Flugwetterberatung. Alle Zeitangaben beziehen sich auf UTC. Die Seite wird einmal die Minute aktualisiert! Sollten Sie ein ältere Seite haben, so drücken Sie bitte auf den Reload Button Ihres Browsers!